createdAt,value
2022-12-13T00:03:02.000Z,25.6
2022-12-13T00:06:29.000Z,26.4
2022-12-13T00:09:57.000Z,28.4
2022-12-13T00:13:26.000Z,22.5
2022-12-13T00:16:54.000Z,27.3
2022-12-13T00:19:43.000Z,25.1
2022-12-13T00:23:11.000Z,27.6
2022-12-13T00:26:42.000Z,25.8
2022-12-13T00:30:10.000Z,23.1
2022-12-13T00:33:57.000Z,26.4
2022-12-13T00:37:25.000Z,26.9
2022-12-13T00:40:53.000Z,27.4
2022-12-13T00:44:20.000Z,26.5
2022-12-13T00:47:48.000Z,26.8
2022-12-13T00:51:17.000Z,25.1
2022-12-13T00:54:45.000Z,28
2022-12-13T00:57:34.000Z,28.2
2022-12-13T01:01:02.000Z,29.6
2022-12-13T01:04:30.000Z,26.6
2022-12-13T01:08:12.000Z,22.6
2022-12-13T01:11:40.000Z,24.7
2022-12-13T01:15:07.000Z,26.1
2022-12-13T01:18:36.000Z,26.3
2022-12-13T01:22:03.000Z,25.6
2022-12-13T01:25:31.000Z,28.1
2022-12-13T01:28:59.000Z,25.9
2022-12-13T01:32:27.000Z,27.6
2022-12-13T01:35:16.000Z,26.8
2022-12-13T01:38:44.000Z,26.9
2022-12-13T01:42:22.000Z,26.6
2022-12-13T01:45:50.000Z,27
2022-12-13T01:49:18.000Z,28.8
2022-12-13T01:52:46.000Z,28.3
2022-12-13T01:56:17.000Z,27.5
2022-12-13T01:59:45.000Z,26.7
2022-12-13T02:03:13.000Z,27.6
2022-12-13T02:06:42.000Z,24.1
2022-12-13T02:10:10.000Z,27.4
2022-12-13T02:12:59.000Z,27.2
2022-12-13T02:16:27.000Z,25.6
2022-12-13T02:19:55.000Z,25.9
2022-12-13T02:23:23.000Z,27.8
2022-12-13T02:26:51.000Z,27.3
2022-12-13T02:30:28.000Z,24.9
2022-12-13T02:33:56.000Z,19
2022-12-13T02:37:24.000Z,24.1
2022-12-13T02:40:52.000Z,26.5
2022-12-13T02:44:21.000Z,25.6
2022-12-13T02:47:49.000Z,26.5
2022-12-13T02:50:38.000Z,25.1
2022-12-13T02:54:08.000Z,26.1
2022-12-13T02:57:36.000Z,25.4
2022-12-13T03:01:04.000Z,25.4
2022-12-13T03:04:50.000Z,25
2022-12-13T03:08:18.000Z,25.3
2022-12-13T03:11:46.000Z,28.4
2022-12-13T03:15:14.000Z,28.3
2022-12-13T03:18:42.000Z,23.5
2022-12-13T03:22:19.000Z,24.4
2022-12-13T03:25:47.000Z,25.7
2022-12-13T03:28:36.000Z,25.7
2022-12-13T03:32:04.000Z,24.4
2022-12-13T03:35:32.000Z,28.3
2022-12-13T03:39:05.000Z,25.7
2022-12-13T03:42:33.000Z,25.5
2022-12-13T03:46:01.000Z,27.4
2022-12-13T03:49:29.000Z,28.1
2022-12-13T03:52:57.000Z,25.6
2022-12-13T03:56:25.000Z,27
2022-12-13T03:59:53.000Z,26.5
2022-12-13T04:03:21.000Z,24.9
2022-12-13T04:06:10.000Z,23.6
2022-12-13T04:09:44.000Z,25.8
2022-12-13T04:13:12.000Z,26.8
2022-12-13T04:16:40.000Z,26
2022-12-13T04:20:08.000Z,26.2
2022-12-13T04:23:36.000Z,25.5
2022-12-13T04:27:03.000Z,23.3
2022-12-13T04:30:31.000Z,24.4
2022-12-13T04:33:59.000Z,27.8
2022-12-13T04:37:27.000Z,25.8
2022-12-13T04:44:08.000Z,31.1
2022-12-13T04:47:51.000Z,23.9
2022-12-13T04:51:18.000Z,24.8
2022-12-13T04:54:46.000Z,24.1
2022-12-13T04:58:16.000Z,22.9
2022-12-13T05:01:44.000Z,24.7
2022-12-13T05:05:12.000Z,24.7
2022-12-13T05:08:40.000Z,24.5
2022-12-13T05:12:08.000Z,24.4
2022-12-13T05:15:43.000Z,24.5
2022-12-13T05:19:15.000Z,26.6
2022-12-13T05:22:13.000Z,25.9
2022-12-13T05:25:41.000Z,26.1
2022-12-13T05:29:22.000Z,25.4
2022-12-13T05:32:50.000Z,26.9
2022-12-13T05:36:17.000Z,27.1
2022-12-13T05:39:50.000Z,26.9
2022-12-13T05:43:18.000Z,25.1
2022-12-13T05:47:03.000Z,27.1
2022-12-13T05:50:31.000Z,26.2
2022-12-13T05:53:59.000Z,25.7
2022-12-13T05:57:27.000Z,22.1
2022-12-13T06:00:16.000Z,24.5
2022-12-13T06:03:51.000Z,25.4
2022-12-13T06:07:19.000Z,26.7
2022-12-13T06:10:47.000Z,27.5
2022-12-13T06:14:39.000Z,27.7
2022-12-13T06:18:19.000Z,27.1
2022-12-13T06:21:47.000Z,28.6
2022-12-13T06:25:15.000Z,26.2
2022-12-13T06:28:52.000Z,27.1
2022-12-13T06:32:20.000Z,27.8
2022-12-13T06:35:48.000Z,29.1
2022-12-13T06:38:37.000Z,29.3
2022-12-13T06:42:05.000Z,26.1
2022-12-13T06:45:42.000Z,27.9
2022-12-13T06:49:28.000Z,27.9
2022-12-13T06:52:56.000Z,26.8
2022-12-13T06:56:24.000Z,27.1
2022-12-13T06:59:52.000Z,26
2022-12-13T07:03:21.000Z,27.9
2022-12-13T07:06:49.000Z,26.1
2022-12-13T07:10:22.000Z,22.3
2022-12-13T07:13:50.000Z,24.6
2022-12-13T07:16:39.000Z,27.6
2022-12-13T07:20:07.000Z,25
2022-12-13T07:23:35.000Z,27.8
2022-12-13T07:35:55.000Z,29.5
2022-12-13T07:39:26.000Z,25
2022-12-13T07:42:54.000Z,25.1
2022-12-13T07:46:22.000Z,26.5
2022-12-13T07:49:54.000Z,25
2022-12-13T07:53:22.000Z,27
2022-12-13T07:56:54.000Z,22.5
2022-12-13T08:00:25.000Z,24.7
2022-12-13T08:02:51.000Z,24.6
2022-12-13T08:06:19.000Z,22.6
2022-12-13T08:09:47.000Z,28
2022-12-13T08:13:15.000Z,27
2022-12-13T08:16:49.000Z,20.8
2022-12-13T08:20:17.000Z,22.6
2022-12-13T08:23:52.000Z,23.5
2022-12-13T08:27:20.000Z,25.7
2022-12-13T08:30:47.000Z,26
2022-12-13T08:34:15.000Z,24.7
2022-12-13T08:37:43.000Z,22.6
2022-12-13T08:40:32.000Z,24.6
2022-12-13T08:44:14.000Z,25.6
2022-12-13T08:47:42.000Z,24.5
2022-12-13T08:51:10.000Z,24.6
2022-12-13T08:54:46.000Z,25.4
2022-12-13T08:58:14.000Z,23.2
2022-12-13T09:01:42.000Z,26
2022-12-13T09:05:16.000Z,24
2022-12-13T09:08:58.000Z,27.6
2022-12-13T09:12:34.000Z,24.6
2022-12-13T09:16:10.000Z,23.2
2022-12-13T09:19:05.000Z,25
2022-12-13T09:22:47.000Z,24
2022-12-13T09:26:22.000Z,21.5
2022-12-13T09:29:58.000Z,22.6
2022-12-13T09:33:26.000Z,23.3
2022-12-13T09:37:02.000Z,24.4
2022-12-13T09:40:31.000Z,23.3
2022-12-13T09:44:06.000Z,24.3
2022-12-13T09:47:57.000Z,24.6
2022-12-13T09:51:49.000Z,24.6
2022-12-13T09:55:41.000Z,24.6
2022-12-13T09:58:30.000Z,21.8
2022-12-13T10:01:58.000Z,21.5
2022-12-13T10:05:26.000Z,24.4
2022-12-13T10:09:00.000Z,21.9
2022-12-13T10:12:28.000Z,19.5
2022-12-13T10:15:57.000Z,23.5
2022-12-13T10:19:34.000Z,20.1
2022-12-13T10:23:02.000Z,20.8
2022-12-13T10:26:56.000Z,20.6
2022-12-13T10:30:24.000Z,21.2
2022-12-13T10:33:52.000Z,23.7
2022-12-13T10:36:41.000Z,22.3
2022-12-13T10:40:09.000Z,24.5
2022-12-13T10:43:53.000Z,26.2
2022-12-13T10:47:21.000Z,25.9
2022-12-13T10:50:49.000Z,26.1
2022-12-13T10:54:27.000Z,16.4
2022-12-13T10:58:08.000Z,22.9
2022-12-13T11:01:36.000Z,23.8
2022-12-13T11:05:03.000Z,22.9
2022-12-13T11:08:39.000Z,24.7
2022-12-13T11:12:10.000Z,24.4
2022-12-13T11:15:00.000Z,20.6
2022-12-13T11:18:28.000Z,23.4
2022-12-13T11:21:55.000Z,21
2022-12-13T11:25:23.000Z,22.2
2022-12-13T11:28:51.000Z,25.9
2022-12-13T11:32:19.000Z,23.3
2022-12-13T11:35:47.000Z,24.9
2022-12-13T11:39:15.000Z,25.5
2022-12-13T11:42:43.000Z,28.6
2022-12-13T11:46:10.000Z,24.9
2022-12-13T11:49:38.000Z,24.2
2022-12-13T11:52:27.000Z,25.2
2022-12-13T11:55:55.000Z,26.7
2022-12-13T11:59:23.000Z,27.2
2022-12-13T12:03:00.000Z,25.3
2022-12-13T12:06:28.000Z,26
2022-12-13T12:10:29.000Z,26.8
2022-12-13T12:13:56.000Z,25.6
2022-12-13T12:17:24.000Z,21.4
2022-12-13T12:21:02.000Z,26.5
2022-12-13T12:24:30.000Z,25
2022-12-13T12:27:58.000Z,27.9
2022-12-13T12:30:47.000Z,22.7
2022-12-13T12:34:15.000Z,23.6
2022-12-13T12:37:48.000Z,20.7
2022-12-13T12:41:22.000Z,22.1
2022-12-13T12:45:11.000Z,22
2022-12-13T12:50:02.000Z,22.6
2022-12-13T12:53:30.000Z,21.4
2022-12-13T12:56:57.000Z,23.7
2022-12-13T13:00:26.000Z,23.2
2022-12-13T13:03:53.000Z,25
2022-12-13T13:07:22.000Z,22.5
2022-12-13T13:10:11.000Z,26.6
2022-12-13T13:13:53.000Z,26.5
2022-12-13T13:17:22.000Z,21.4
2022-12-13T13:20:50.000Z,26
2022-12-13T13:24:28.000Z,23
2022-12-13T13:28:22.000Z,21.8
2022-12-13T13:31:50.000Z,24.4
2022-12-13T13:35:23.000Z,24.5
2022-12-13T13:38:51.000Z,20.8
2022-12-13T13:42:27.000Z,21.8
2022-12-13T13:45:55.000Z,23.7
2022-12-13T13:48:45.000Z,22.8
2022-12-13T13:52:13.000Z,23.8
2022-12-13T13:55:46.000Z,26.4
2022-12-13T13:59:41.000Z,21.6
2022-12-13T14:03:09.000Z,21.1
2022-12-13T14:06:49.000Z,21.2
2022-12-13T14:10:21.000Z,20.8
2022-12-13T14:13:49.000Z,20.5
2022-12-13T14:17:17.000Z,20
2022-12-13T14:20:45.000Z,21.8
2022-12-13T14:24:13.000Z,21.6
2022-12-13T14:27:02.000Z,20.9
2022-12-13T14:30:30.000Z,21.1
2022-12-13T14:33:58.000Z,20
2022-12-13T14:37:26.000Z,19.5
2022-12-13T14:40:54.000Z,20.7
2022-12-13T14:44:21.000Z,20.2
2022-12-13T14:47:54.000Z,21.2
2022-12-13T14:51:22.000Z,18.7
2022-12-13T14:54:50.000Z,17.9
2022-12-13T14:58:25.000Z,20.2
2022-12-13T15:01:52.000Z,19.6
2022-12-13T15:04:41.000Z,20.9
2022-12-13T15:08:09.000Z,20
2022-12-13T15:11:37.000Z,31.6
2022-12-13T15:15:05.000Z,44.6
2022-12-13T15:18:33.000Z,66.8
2022-12-13T15:22:01.000Z,61.3
2022-12-13T15:25:29.000Z,34.9
2022-12-13T15:28:57.000Z,24.5
2022-12-13T15:32:31.000Z,22.4
2022-12-13T15:35:58.000Z,22.4
2022-12-13T15:39:26.000Z,21.6
2022-12-13T15:42:15.000Z,21.2
2022-12-13T15:45:43.000Z,23.4
2022-12-13T15:49:25.000Z,22.9
2022-12-13T15:52:53.000Z,21
2022-12-13T15:56:21.000Z,21.4
2022-12-13T15:59:48.000Z,21.2
2022-12-13T16:03:16.000Z,20.2
2022-12-13T16:06:45.000Z,20.1
2022-12-13T16:10:13.000Z,20.2
2022-12-13T16:13:41.000Z,18.9
2022-12-13T16:17:16.000Z,18.4
2022-12-13T16:20:06.000Z,18
2022-12-13T16:23:34.000Z,18.7
2022-12-13T16:27:09.000Z,18.9
2022-12-13T16:30:37.000Z,18.5
2022-12-13T16:34:05.000Z,19.1
2022-12-13T16:37:33.000Z,18.5
2022-12-13T16:41:08.000Z,21.4
2022-12-13T16:44:36.000Z,19.8
2022-12-13T16:49:16.000Z,20
2022-12-13T16:52:53.000Z,18.8
2022-12-13T16:56:24.000Z,19
2022-12-13T16:59:13.000Z,18.7
2022-12-13T17:02:41.000Z,19.3
2022-12-13T17:06:16.000Z,19.4
2022-12-13T17:09:44.000Z,19.9
2022-12-13T17:13:14.000Z,19.8
2022-12-13T17:16:42.000Z,18.8
2022-12-13T17:20:10.000Z,19.1
2022-12-13T17:23:38.000Z,19
2022-12-13T17:27:06.000Z,19.9
2022-12-13T17:30:34.000Z,18.5
2022-12-13T17:34:02.000Z,19.4
2022-12-13T17:36:51.000Z,19
2022-12-13T17:40:20.000Z,19.1
2022-12-13T17:43:51.000Z,19
2022-12-13T17:47:19.000Z,19.8
2022-12-13T17:50:47.000Z,19
2022-12-13T17:54:15.000Z,18.6
2022-12-13T17:57:43.000Z,24.7
2022-12-13T18:01:14.000Z,25.5
2022-12-13T18:04:52.000Z,22.8
2022-12-13T18:08:19.000Z,23.3
2022-12-13T18:11:47.000Z,36.1
2022-12-13T18:14:36.000Z,23.6
2022-12-13T18:18:04.000Z,24.5
2022-12-13T18:21:33.000Z,21.9
2022-12-13T18:25:01.000Z,21.8
2022-12-13T18:28:28.000Z,20
2022-12-13T18:31:57.000Z,19.3
2022-12-13T18:35:25.000Z,16.1
2022-12-13T18:38:53.000Z,41.1
2022-12-13T18:42:21.000Z,25
2022-12-13T18:45:49.000Z,20.9
2022-12-13T18:49:17.000Z,19.1
2022-12-13T18:52:06.000Z,20.1
2022-12-13T18:55:34.000Z,17.7
2022-12-13T18:59:02.000Z,17.7
2022-12-13T19:02:29.000Z,18.1
2022-12-13T19:05:57.000Z,16.4
2022-12-13T19:09:25.000Z,17.4
2022-12-13T19:12:53.000Z,17.2
2022-12-13T19:16:23.000Z,17.7
2022-12-13T19:19:51.000Z,17.1
2022-12-13T19:23:19.000Z,16.7
2022-12-13T19:26:47.000Z,13.7
2022-12-13T19:29:36.000Z,20.1
2022-12-13T19:33:04.000Z,20.5
2022-12-13T19:36:32.000Z,19.4
2022-12-13T19:40:00.000Z,21.2
2022-12-13T19:43:28.000Z,20.5
2022-12-13T19:46:56.000Z,19.4
2022-12-13T19:50:24.000Z,18.2
2022-12-13T19:53:51.000Z,18.7
2022-12-13T19:57:19.000Z,20.4
2022-12-13T20:00:47.000Z,21.4
2022-12-13T20:04:15.000Z,21.1
2022-12-13T20:07:04.000Z,18.2
2022-12-13T20:10:32.000Z,25.6
2022-12-13T20:14:00.000Z,24.6
2022-12-13T20:17:28.000Z,21.5
2022-12-13T20:20:56.000Z,21
2022-12-13T20:24:33.000Z,28.4
2022-12-13T20:28:01.000Z,29.5
2022-12-13T20:31:36.000Z,23.1
2022-12-13T20:35:09.000Z,18.9
2022-12-13T20:38:37.000Z,19.8
2022-12-13T20:42:05.000Z,19.3
2022-12-13T20:44:54.000Z,18.4
2022-12-13T20:48:22.000Z,19.8
2022-12-13T20:51:50.000Z,21.2
2022-12-13T20:55:18.000Z,20.5
2022-12-13T20:58:45.000Z,19.7
2022-12-13T21:02:13.000Z,19.7
2022-12-13T21:05:41.000Z,18.4
2022-12-13T21:09:09.000Z,19.4
2022-12-13T21:12:37.000Z,19.1
2022-12-13T21:16:13.000Z,19.7
2022-12-13T21:19:41.000Z,20.1
2022-12-13T21:22:30.000Z,17.7
2022-12-13T21:25:58.000Z,20.3
2022-12-13T21:29:26.000Z,20.7
2022-12-13T21:32:54.000Z,21.1
2022-12-13T21:36:22.000Z,20
2022-12-13T21:39:49.000Z,21.2
2022-12-13T21:43:17.000Z,19.6
2022-12-13T21:46:45.000Z,20.9
2022-12-13T21:50:34.000Z,21
2022-12-13T21:54:01.000Z,18.2
2022-12-13T21:57:35.000Z,19
2022-12-13T22:00:24.000Z,19.6
2022-12-13T22:03:52.000Z,19.2
2022-12-13T22:07:27.000Z,21.2
2022-12-13T22:10:55.000Z,19.5
2022-12-13T22:14:23.000Z,19.8
2022-12-13T22:17:50.000Z,19.7
2022-12-13T22:21:18.000Z,17.4
2022-12-13T22:24:46.000Z,19.7
2022-12-13T22:28:14.000Z,20.6
2022-12-13T22:31:42.000Z,20
2022-12-13T22:35:10.000Z,19.9
2022-12-13T22:37:59.000Z,17.4
2022-12-13T22:41:27.000Z,21
2022-12-13T22:44:55.000Z,19.2
2022-12-13T22:48:23.000Z,21.5
2022-12-13T22:51:51.000Z,20.5
2022-12-13T22:55:18.000Z,20.9
2022-12-13T22:58:46.000Z,20
2022-12-13T23:02:14.000Z,21.8
2022-12-13T23:05:42.000Z,21.5
2022-12-13T23:09:10.000Z,20.3
2022-12-13T23:12:38.000Z,29.6
2022-12-13T23:15:27.000Z,24.8
2022-12-13T23:18:55.000Z,23.6
2022-12-13T23:23:00.000Z,23.3
2022-12-13T23:26:28.000Z,23.7
2022-12-13T23:29:56.000Z,20.3
2022-12-13T23:33:24.000Z,20.5
2022-12-13T23:36:52.000Z,21
2022-12-13T23:40:20.000Z,20.1
2022-12-13T23:43:48.000Z,20.6
2022-12-13T23:47:15.000Z,19.9
2022-12-13T23:50:43.000Z,17.5
2022-12-13T23:53:32.000Z,21.7
2022-12-13T23:57:00.000Z,20
